Aromas, California
Current Conditions -  °F | °C
As of 3:53 PM on Friday 28 Nov 2014 (Local Time) from KWVI Reporting Station
Clear Clear  
Wind Chill: 60°   Ceiling: Unl
Heat Index: 60°   Visibility: 10mi
Dew Point: 45°   Wind: 10mph
Humidity: 57%   Direction: 160°SSE
Pressure: 29.92"   Gusts: 21mph
Location:  36.88°N, 121.64°W
Report Text: KWVI 282353Z AUTO 16009G18KT 100V200 10SM CLR 16/07 A2992 RMK AO2 SLP132 T01560072 10194 20122 56013
Loading
Personal Weather Stations






























Interactive Weather Map New forecast layout! Learn more

10-Day Weather Forecast

Advertisements
Track Severe Weather on mobile